LiveATC.Net - Listen to live air traffic control over the Internet!


ICAO: EPLL  IATA: LCJ   Airport: Lublinek Airport
City: Lodz
Country: Poland   Continent: Europe
EPLL METAR Weather: EPLL 301900Z 11006KT 070V150 9999 OVC011 00/M02 Q1029
EPLL ADS-B Flight Tracking (ADSBExchange)
EPLL Flight Activity (FlightAware)
EPLL Webcam:  (Airport Webcams) 

EPLL Tower
Feed Status: UP   Listeners: 2
Listen in your browser - HTML5 player (in browser, HTML5)
Click here to listen with your own player (launches your MP3 player)
Archive Access: EPLL Tower
FacilityFrequency
Lodz Tower124.230

NOTICE

Unauthorized use prohibited. See LiveATC.net Terms of Service


Airport/ARTCC Code
Frequency Search
(e.g., 124.400, 128.75)
Site-wide search
 


Browse Feeds
Top 50 Feeds
HF Oceanic Feeds
Coverage Map
Bad Weather Areas

LiveATC FAQ
Offer LiveATC feed
Contact LiveATC.net
Press Inquiries

LiveATC on iPhone
LiveATC on Android

LiveATC Mobile
(Mobile browser)

ATC Audio Archives
Interesting Recordings

LiveATC Forums


Home Page
About LiveATC.net


Terms of Use
Privacy Policy

AIRMETs/SIGMETs

FAA Airport Status
NAS Status
Arrival Demand


Server Software By:
Icecast.org
Liquidsoap